createdAt,value
2019-02-28T00:00:41.758Z,1010.46
2019-02-28T00:01:43.224Z,1010.42
2019-02-28T00:02:41.682Z,1010.44
2019-02-28T00:03:41.641Z,1010.46
2019-02-28T00:04:41.607Z,1010.39
2019-02-28T00:05:41.573Z,1010.37
2019-02-28T00:06:44.054Z,1010.44
2019-02-28T00:07:41.508Z,1010.43
2019-02-28T00:08:41.469Z,1010.43
2019-02-28T00:09:41.434Z,1010.41
2019-02-28T00:10:41.400Z,1010.35
2019-02-28T00:11:41.371Z,1010.38
2019-02-28T00:12:41.340Z,1010.37
2019-02-28T00:13:41.293Z,1010.38
2019-02-28T00:14:41.266Z,1010.37
2019-02-28T00:15:41.216Z,1010.42
2019-02-28T00:16:41.210Z,1010.38
2019-02-28T00:17:43.531Z,1010.40
2019-02-28T00:18:41.117Z,1010.44
2019-02-28T00:19:41.082Z,1010.42
2019-02-28T00:20:41.047Z,1010.45
2019-02-28T00:21:41.319Z,1010.35
2019-02-28T00:22:41.000Z,1010.36
2019-02-28T00:23:40.940Z,1010.44
2019-02-28T00:24:40.909Z,1010.46
2019-02-28T00:25:40.885Z,1010.46
2019-02-28T00:26:46.447Z,1010.46
2019-02-28T00:27:40.815Z,1010.46
2019-02-28T00:28:40.766Z,1010.44
2019-02-28T00:29:40.723Z,1010.44
2019-02-28T00:30:40.893Z,1010.39
2019-02-28T00:31:40.660Z,1010.32
2019-02-28T00:32:40.618Z,1010.37
2019-02-28T00:33:40.590Z,1010.36
2019-02-28T00:34:40.552Z,1010.35
2019-02-28T00:35:40.517Z,1010.32
2019-02-28T00:36:40.492Z,1010.32
2019-02-28T00:37:40.449Z,1010.30
2019-02-28T00:38:40.487Z,1010.28
2019-02-28T00:39:40.377Z,1010.26
2019-02-28T00:40:40.346Z,1010.26
2019-02-28T00:41:44.274Z,1010.23
2019-02-28T00:42:40.273Z,1010.26
2019-02-28T00:43:40.236Z,1010.26
2019-02-28T00:44:40.203Z,1010.23
2019-02-28T00:45:40.160Z,1010.24
2019-02-28T00:46:44.047Z,1010.22
2019-02-28T00:47:40.098Z,1010.24
2019-02-28T00:48:40.069Z,1010.18
2019-02-28T00:49:40.024Z,1010.20
2019-02-28T00:50:40.007Z,1010.20
2019-02-28T00:51:39.959Z,1010.25
2019-02-28T00:52:39.951Z,1010.13
2019-02-28T00:53:39.888Z,1010.17
2019-02-28T00:54:43.188Z,1010.19
2019-02-28T00:55:39.816Z,1010.19
2019-02-28T00:56:39.781Z,1010.14
2019-02-28T00:57:39.756Z,1010.12
2019-02-28T00:58:39.730Z,1010.11
2019-02-28T00:59:39.678Z,1010.10
2019-02-28T01:00:39.639Z,1010.10
2019-02-28T01:01:39.604Z,1010.08
2019-02-28T01:02:39.572Z,1010.09
2019-02-28T01:03:39.536Z,1010.05
2019-02-28T01:04:39.493Z,1010.03
2019-02-28T01:05:39.461Z,1010.04
2019-02-28T01:06:41.711Z,1010.03
2019-02-28T01:08:02.887Z,1010.01
2019-02-28T01:08:39.362Z,1009.98
2019-02-28T01:09:39.326Z,1009.95
2019-02-28T01:10:40.039Z,1009.94
2019-02-28T01:11:39.245Z,1009.90
2019-02-28T01:12:39.220Z,1009.92
2019-02-28T01:13:39.179Z,1009.94
2019-02-28T01:14:39.141Z,1009.93
2019-02-28T01:15:44.421Z,1009.89
2019-02-28T01:16:41.317Z,1009.91
2019-02-28T01:17:39.040Z,1009.87
2019-02-28T01:18:39.002Z,1009.81
2019-02-28T01:19:41.255Z,1009.88
2019-02-28T01:20:38.932Z,1009.92
2019-02-28T01:21:38.889Z,1009.87
2019-02-28T01:22:38.858Z,1009.92
2019-02-28T01:23:38.823Z,1009.85
2019-02-28T01:24:38.802Z,1009.87
2019-02-28T01:25:40.134Z,1009.85
2019-02-28T01:26:38.716Z,1009.84
2019-02-28T01:27:38.694Z,1009.84
2019-02-28T01:28:38.648Z,1009.86
2019-02-28T01:29:38.610Z,1009.77
2019-02-28T01:30:40.472Z,1009.83
2019-02-28T01:31:38.541Z,1009.83
2019-02-28T01:32:38.499Z,1009.84
2019-02-28T01:33:38.470Z,1009.88
2019-02-28T01:34:38.437Z,1009.82
2019-02-28T01:35:40.806Z,1009.79
2019-02-28T01:36:38.356Z,1009.87
2019-02-28T01:37:38.354Z,1009.80
2019-02-28T01:38:38.291Z,1009.77
2019-02-28T01:39:38.254Z,1009.76
2019-02-28T01:40:38.446Z,1009.68
2019-02-28T01:41:38.182Z,1009.72
2019-02-28T01:42:38.147Z,1009.75
2019-02-28T01:43:38.125Z,1009.71
2019-02-28T01:44:38.090Z,1009.66
2019-02-28T01:45:38.037Z,1009.70
2019-02-28T01:46:38.001Z,1009.69
2019-02-28T01:47:37.966Z,1009.64
2019-02-28T01:48:37.930Z,1009.64
2019-02-28T01:49:37.892Z,1009.67
2019-02-28T01:50:37.874Z,1009.67
2019-02-28T01:51:38.771Z,1009.67
2019-02-28T01:52:37.785Z,1009.71
2019-02-28T01:53:37.748Z,1009.66
2019-02-28T01:54:37.717Z,1009.66
2019-02-28T01:55:37.708Z,1009.65
2019-02-28T01:56:37.848Z,1009.63
2019-02-28T01:57:42.311Z,1009.64
2019-02-28T01:58:37.560Z,1009.60
2019-02-28T01:59:37.526Z,1009.59
2019-02-28T02:00:37.492Z,1009.61
2019-02-28T02:01:37.485Z,1009.57
2019-02-28T02:02:38.963Z,1009.54
2019-02-28T02:03:40.682Z,1009.55
2019-02-28T02:04:37.351Z,1009.55
2019-02-28T02:05:37.309Z,1009.56
2019-02-28T02:06:37.281Z,1009.57
2019-02-28T02:07:37.233Z,1009.53
2019-02-28T02:08:37.797Z,1009.58
2019-02-28T02:09:37.158Z,1009.56
2019-02-28T02:10:37.142Z,1009.52
2019-02-28T02:11:37.087Z,1009.49
2019-02-28T02:12:37.055Z,1009.50
2019-02-28T02:13:37.497Z,1009.47
2019-02-28T02:14:36.976Z,1009.43
2019-02-28T02:15:36.943Z,1009.41
2019-02-28T02:16:36.906Z,1009.45
2019-02-28T02:17:36.874Z,1009.47
2019-02-28T02:18:36.845Z,1009.40
2019-02-28T02:19:36.798Z,1009.43
2019-02-28T02:20:36.751Z,1009.38
2019-02-28T02:21:36.735Z,1009.32
2019-02-28T02:22:36.686Z,1009.40
2019-02-28T02:23:36.648Z,1009.27
2019-02-28T02:24:36.616Z,1009.34
2019-02-28T02:25:37.502Z,1009.30
2019-02-28T02:26:36.535Z,1009.29
2019-02-28T02:27:36.507Z,1009.30
2019-02-28T02:28:36.468Z,1009.27
2019-02-28T02:29:37.093Z,1009.28
2019-02-28T02:30:36.397Z,1009.22
2019-02-28T02:31:36.390Z,1009.21
2019-02-28T02:32:38.742Z,1009.09
2019-02-28T02:33:36.292Z,1009.11
2019-02-28T02:34:36.252Z,1009.11
2019-02-28T02:35:42.240Z,1009.13
2019-02-28T02:36:36.194Z,1009.14
2019-02-28T02:37:36.141Z,1009.11
2019-02-28T02:38:40.544Z,1009.10
2019-02-28T02:39:36.062Z,1009.08
2019-02-28T02:40:36.049Z,1009.07
2019-02-28T02:41:35.997Z,1009.01
2019-02-28T02:42:35.960Z,1009.05
2019-02-28T02:43:35.925Z,1008.98
2019-02-28T02:44:35.885Z,1008.95
2019-02-28T02:45:41.736Z,1008.94
2019-02-28T02:46:35.810Z,1008.96
2019-02-28T02:47:35.774Z,1008.93
2019-02-28T02:48:38.560Z,1008.92
2019-02-28T02:49:35.712Z,1008.82
2019-02-28T02:50:36.127Z,1008.93
2019-02-28T02:51:35.630Z,1008.89
2019-02-28T02:52:35.590Z,1008.92
2019-02-28T02:53:41.406Z,1008.86
2019-02-28T02:54:35.529Z,1008.89
2019-02-28T02:55:35.482Z,1008.82
2019-02-28T02:56:40.692Z,1008.87
2019-02-28T02:57:35.408Z,1008.87
2019-02-28T02:58:35.363Z,1008.84
2019-02-28T02:59:39.106Z,1008.83
2019-02-28T03:00:35.333Z,1008.84
2019-02-28T03:01:35.297Z,1008.79
2019-02-28T03:02:35.223Z,1008.65
2019-02-28T03:03:35.191Z,1008.73
2019-02-28T03:04:35.151Z,1008.75
2019-02-28T03:05:36.661Z,1008.69
2019-02-28T03:06:35.096Z,1008.73
2019-02-28T03:07:35.035Z,1008.70
2019-02-28T03:08:36.386Z,1008.76
2019-02-28T03:09:34.977Z,1008.73
2019-02-28T03:10:34.939Z,1008.75
2019-02-28T03:11:34.894Z,1008.78
2019-02-28T03:12:34.866Z,1008.72
2019-02-28T03:13:41.923Z,1008.75
2019-02-28T03:14:34.782Z,1008.75
2019-02-28T03:15:34.765Z,1008.79
2019-02-28T03:16:34.750Z,1008.72
2019-02-28T03:17:34.673Z,1008.70
2019-02-28T03:18:34.661Z,1008.73
2019-02-28T03:19:34.696Z,1008.69
2019-02-28T03:20:34.563Z,1008.68
2019-02-28T03:21:34.526Z,1008.66
2019-02-28T03:22:34.491Z,1008.74
2019-02-28T03:23:40.132Z,1008.69
2019-02-28T03:24:34.420Z,1008.71
2019-02-28T03:25:34.378Z,1008.56
2019-02-28T03:26:34.345Z,1008.71
2019-02-28T03:27:34.311Z,1008.70
2019-02-28T03:28:34.272Z,1008.69
2019-02-28T03:29:34.237Z,1008.69
2019-02-28T03:30:34.224Z,1008.63
2019-02-28T03:31:34.374Z,1008.70
2019-02-28T03:32:42.188Z,1008.73
2019-02-28T03:33:34.105Z,1008.75
2019-02-28T03:34:34.062Z,1008.74
2019-02-28T03:35:41.430Z,1008.73
2019-02-28T03:36:33.989Z,1008.72
2019-02-28T03:37:34.590Z,1008.71
2019-02-28T03:38:33.908Z,1008.72
2019-02-28T03:39:33.872Z,1008.73
2019-02-28T03:40:39.732Z,1008.71
2019-02-28T03:41:33.799Z,1008.62
2019-02-28T03:42:33.761Z,1008.71
2019-02-28T03:43:33.735Z,1008.69
2019-02-28T03:44:33.690Z,1008.65
2019-02-28T03:45:35.181Z,1008.63
2019-02-28T03:46:33.624Z,1008.66
2019-02-28T03:47:33.594Z,1008.64
2019-02-28T03:48:35.896Z,1008.66
2019-02-28T03:49:33.510Z,1008.59
2019-02-28T03:50:33.481Z,1008.59
2019-02-28T03:51:33.453Z,1008.61
2019-02-28T03:52:33.395Z,1008.58
2019-02-28T03:53:33.373Z,1008.60
2019-02-28T03:54:33.329Z,1008.57
2019-02-28T03:55:39.840Z,1008.56
2019-02-28T03:56:33.254Z,1008.63
2019-02-28T03:57:33.216Z,1008.53
2019-02-28T03:58:33.179Z,1008.62
2019-02-28T03:59:33.143Z,1008.65
2019-02-28T04:00:34.161Z,1008.51
2019-02-28T04:01:33.069Z,1008.64
2019-02-28T04:02:33.033Z,1008.65
2019-02-28T04:03:33.714Z,1008.66
2019-02-28T04:04:32.969Z,1008.64
2019-02-28T04:05:32.923Z,1008.66
2019-02-28T04:06:39.518Z,1008.55
2019-02-28T04:07:34.684Z,1008.65
2019-02-28T04:08:32.817Z,1008.68
2019-02-28T04:09:32.780Z,1008.68
2019-02-28T04:10:32.748Z,1008.70
2019-02-28T04:11:32.708Z,1008.60
2019-02-28T04:12:32.671Z,1008.63
2019-02-28T04:13:32.651Z,1008.64
2019-02-28T04:14:33.103Z,1008.56
2019-02-28T04:15:32.581Z,1008.61
2019-02-28T04:16:32.528Z,1008.61
2019-02-28T04:17:32.506Z,1008.63
2019-02-28T04:18:32.453Z,1008.62
2019-02-28T04:19:32.417Z,1008.60
2019-02-28T04:20:37.433Z,1008.67
2019-02-28T04:21:32.340Z,1008.63
2019-02-28T04:22:32.322Z,1008.62
2019-02-28T04:23:36.169Z,1008.60
2019-02-28T04:24:32.229Z,1008.65
2019-02-28T04:25:32.205Z,1008.61
2019-02-28T04:26:32.158Z,1008.57
2019-02-28T04:27:32.124Z,1008.68
2019-02-28T04:28:32.085Z,1008.73
2019-02-28T04:29:32.068Z,1008.70
2019-02-28T04:30:32.018Z,1008.75
2019-02-28T04:31:31.979Z,1008.76
2019-02-28T04:32:31.943Z,1008.75
2019-02-28T04:33:37.697Z,1008.75
2019-02-28T04:34:31.865Z,1008.73
2019-02-28T04:35:31.830Z,1008.70
2019-02-28T04:36:35.461Z,1008.71
2019-02-28T04:37:31.758Z,1008.73
2019-02-28T04:38:31.720Z,1008.67
2019-02-28T04:39:31.681Z,1008.65
2019-02-28T04:40:31.653Z,1008.69
2019-02-28T04:41:32.995Z,1008.68
2019-02-28T04:42:32.203Z,1008.61
2019-02-28T04:43:31.535Z,1008.56
2019-02-28T04:44:32.201Z,1008.50
2019-02-28T04:45:31.468Z,1008.49
2019-02-28T04:46:31.884Z,1008.48
2019-02-28T04:47:31.387Z,1008.50
2019-02-28T04:48:31.352Z,1008.50
2019-02-28T04:49:31.322Z,1008.46
2019-02-28T04:50:32.197Z,1008.41
2019-02-28T04:51:31.245Z,1008.41
2019-02-28T04:52:31.206Z,1008.39
2019-02-28T04:53:31.168Z,1008.42
2019-02-28T04:54:31.133Z,1008.43
2019-02-28T04:55:31.097Z,1008.35
2019-02-28T04:56:31.060Z,1008.37
2019-02-28T04:57:31.026Z,1008.43
2019-02-28T04:58:30.986Z,1008.44
2019-02-28T04:59:31.633Z,1008.43
2019-02-28T05:00:30.917Z,1008.44
2019-02-28T05:01:30.877Z,1008.44
2019-02-28T05:02:30.839Z,1008.46
2019-02-28T05:03:30.806Z,1008.52
2019-02-28T05:04:33.237Z,1008.45
2019-02-28T05:05:30.730Z,1008.50
2019-02-28T05:06:30.692Z,1008.50
2019-02-28T05:07:30.678Z,1008.50
2019-02-28T05:08:30.622Z,1008.49
2019-02-28T05:09:30.580Z,1008.47
2019-02-28T05:10:30.549Z,1008.49
2019-02-28T05:11:31.398Z,1008.53
2019-02-28T05:12:30.473Z,1008.51
2019-02-28T05:13:30.436Z,1008.53
2019-02-28T05:14:30.428Z,1008.51
2019-02-28T05:15:30.365Z,1008.39
2019-02-28T05:16:30.330Z,1008.48
2019-02-28T05:17:30.288Z,1008.46
2019-02-28T05:18:30.252Z,1008.45
2019-02-28T05:19:32.391Z,1008.49
2019-02-28T05:20:30.180Z,1008.46
2019-02-28T05:21:30.142Z,1008.41
2019-02-28T05:22:30.112Z,1008.39
2019-02-28T05:23:30.071Z,1008.35
2019-02-28T05:24:30.040Z,1008.40
2019-02-28T05:25:29.994Z,1008.47
2019-02-28T05:26:29.962Z,1008.43
2019-02-28T05:27:34.812Z,1008.46
2019-02-28T05:28:29.887Z,1008.41
2019-02-28T05:29:29.851Z,1008.44
2019-02-28T05:30:29.812Z,1008.38
2019-02-28T05:31:29.777Z,1008.42
2019-02-28T05:32:32.120Z,1008.41
2019-02-28T05:33:29.719Z,1008.33
2019-02-28T05:34:29.666Z,1008.43
2019-02-28T05:35:29.629Z,1008.38
2019-02-28T05:36:29.597Z,1008.36
2019-02-28T05:37:29.559Z,1008.34
2019-02-28T05:38:29.520Z,1008.37
2019-02-28T05:39:30.984Z,1008.24
2019-02-28T05:40:29.446Z,1008.41
2019-02-28T05:41:29.403Z,1008.42
2019-02-28T05:42:29.374Z,1008.33
2019-02-28T05:43:32.192Z,1008.35
2019-02-28T05:44:29.300Z,1008.36
2019-02-28T05:45:29.270Z,1008.37
2019-02-28T05:46:29.226Z,1008.40
2019-02-28T05:47:29.363Z,1008.33
2019-02-28T05:48:29.156Z,1008.33
2019-02-28T05:49:29.119Z,1008.25
2019-02-28T05:50:29.080Z,1008.27
2019-02-28T05:51:29.043Z,1008.39
2019-02-28T05:52:30.480Z,1008.31
2019-02-28T05:53:28.964Z,1008.22
2019-02-28T05:54:28.935Z,1008.33
2019-02-28T05:55:28.895Z,1008.28
2019-02-28T05:56:32.778Z,1008.29
2019-02-28T05:57:28.827Z,1008.33
2019-02-28T05:58:28.787Z,1008.35
2019-02-28T05:59:28.752Z,1008.26
2019-02-28T06:00:28.715Z,1008.20
2019-02-28T06:01:28.684Z,1008.17
2019-02-28T06:02:28.638Z,1008.20
2019-02-28T06:03:29.566Z,1008.19
2019-02-28T06:04:28.580Z,1008.13
2019-02-28T06:05:28.531Z,1008.13
2019-02-28T06:06:28.497Z,1008.17
2019-02-28T06:07:28.917Z,1008.17
2019-02-28T06:08:28.421Z,1008.14
2019-02-28T06:09:28.383Z,1008.19
2019-02-28T06:10:28.360Z,1008.16
2019-02-28T06:11:31.396Z,1008.16
2019-02-28T06:12:28.279Z,1008.08
2019-02-28T06:13:28.242Z,1008.13
2019-02-28T06:14:28.202Z,1008.14
2019-02-28T06:15:28.993Z,1008.20
2019-02-28T06:16:28.130Z,1008.09
2019-02-28T06:17:28.093Z,1008.17
2019-02-28T06:18:32.630Z,1008.11
2019-02-28T06:19:28.020Z,1008.09
2019-02-28T06:20:27.982Z,1008.11
2019-02-28T06:21:27.947Z,1008.14
2019-02-28T06:22:30.539Z,1008.12
2019-02-28T06:23:27.904Z,1008.14
2019-02-28T06:24:27.844Z,1008.10
2019-02-28T06:25:27.805Z,1008.12
2019-02-28T06:26:27.767Z,1008.11
2019-02-28T06:27:27.728Z,1008.15
2019-02-28T06:28:30.934Z,1008.08
2019-02-28T06:29:27.653Z,1008.10
2019-02-28T06:30:27.913Z,1008.18
2019-02-28T06:31:27.586Z,1008.10
2019-02-28T06:32:27.553Z,1008.16
2019-02-28T06:33:30.563Z,1008.20
2019-02-28T06:34:27.467Z,1008.25
2019-02-28T06:35:27.434Z,1008.18
2019-02-28T06:36:29.171Z,1008.18
2019-02-28T06:37:27.369Z,1008.26
2019-02-28T06:38:27.325Z,1008.25
2019-02-28T06:39:27.711Z,1008.28
2019-02-28T06:40:30.157Z,1008.26
2019-02-28T06:41:27.216Z,1008.24
2019-02-28T06:42:27.179Z,1008.29
2019-02-28T06:43:27.149Z,1008.24
2019-02-28T06:44:27.706Z,1008.27
2019-02-28T06:45:27.069Z,1008.26
2019-02-28T06:46:27.034Z,1008.28
2019-02-28T06:47:26.998Z,1008.29
2019-02-28T06:48:26.965Z,1008.26
2019-02-28T06:49:26.926Z,1008.25
2019-02-28T06:50:26.892Z,1008.18
2019-02-28T06:51:26.854Z,1008.26
2019-02-28T06:52:26.817Z,1008.27
2019-02-28T06:53:26.781Z,1008.30
2019-02-28T06:54:26.745Z,1008.22
2019-02-28T06:55:26.713Z,1008.18
2019-02-28T06:56:26.670Z,1008.34
2019-02-28T06:57:27.459Z,1008.35
2019-02-28T06:58:26.602Z,1008.24
2019-02-28T06:59:26.568Z,1008.27
2019-02-28T07:00:26.556Z,1008.25
2019-02-28T07:01:26.492Z,1008.25
2019-02-28T07:02:28.582Z,1008.27
2019-02-28T07:03:26.427Z,1008.26
2019-02-28T07:04:26.391Z,1008.14
2019-02-28T07:05:26.443Z,1008.30
2019-02-28T07:06:26.327Z,1008.28
2019-02-28T07:07:26.297Z,1008.29
2019-02-28T07:08:28.970Z,1008.32
2019-02-28T07:09:26.218Z,1008.33
2019-02-28T07:10:26.180Z,1008.33
2019-02-28T07:11:26.166Z,1008.33
2019-02-28T07:12:29.548Z,1008.30
2019-02-28T07:13:26.118Z,1008.30
2019-02-28T07:14:26.042Z,1008.31
2019-02-28T07:15:26.011Z,1008.34
2019-02-28T07:16:25.979Z,1008.26
2019-02-28T07:17:25.940Z,1008.29
2019-02-28T07:18:25.915Z,1008.28
2019-02-28T07:19:26.407Z,1008.28
2019-02-28T07:20:25.863Z,1008.21
2019-02-28T07:21:25.812Z,1008.23
2019-02-28T07:22:25.781Z,1008.25
2019-02-28T07:23:26.739Z,1008.25
2019-02-28T07:24:25.738Z,1008.12
2019-02-28T07:25:25.681Z,1008.20
2019-02-28T07:26:25.652Z,1008.18
2019-02-28T07:27:26.661Z,1008.22
2019-02-28T07:28:25.586Z,1008.15
2019-02-28T07:29:25.555Z,1008.21
2019-02-28T07:30:25.529Z,1008.15
2019-02-28T07:31:25.562Z,1008.23
2019-02-28T07:32:26.181Z,1008.27
2019-02-28T07:33:25.429Z,1008.29
2019-02-28T07:34:25.403Z,1008.30
2019-02-28T07:35:25.362Z,1008.23
2019-02-28T07:36:25.336Z,1008.29
2019-02-28T07:37:25.309Z,1008.28
2019-02-28T07:38:25.677Z,1008.33
2019-02-28T07:39:25.244Z,1008.29
2019-02-28T07:40:25.216Z,1008.25
2019-02-28T07:41:26.661Z,1008.21
2019-02-28T07:42:25.153Z,1008.20
2019-02-28T07:43:25.126Z,1008.25
2019-02-28T07:44:25.097Z,1008.24
2019-02-28T07:45:25.066Z,1008.23
2019-02-28T07:46:25.037Z,1008.27
2019-02-28T07:47:25.487Z,1008.27
2019-02-28T07:48:29.087Z,1008.30
2019-02-28T07:49:25.851Z,1008.30
2019-02-28T07:50:24.908Z,1008.16
2019-02-28T07:51:26.347Z,1008.23
2019-02-28T07:52:24.855Z,1008.21
2019-02-28T07:53:24.836Z,1008.26
2019-02-28T07:54:24.823Z,1008.23
2019-02-28T07:55:27.311Z,1008.27
2019-02-28T07:56:24.738Z,1008.22
2019-02-28T07:57:24.710Z,1008.32
2019-02-28T07:58:26.616Z,1008.33
2019-02-28T07:59:24.654Z,1008.31
2019-02-28T08:00:24.623Z,1008.29
2019-02-28T08:01:27.715Z,1008.33
2019-02-28T08:02:24.565Z,1008.30
2019-02-28T08:03:24.538Z,1008.37
2019-02-28T08:04:24.512Z,1008.29
2019-02-28T08:05:30.169Z,1008.36
2019-02-28T08:06:24.455Z,1008.37
2019-02-28T08:07:24.446Z,1008.34
2019-02-28T08:08:26.440Z,1008.36
2019-02-28T08:09:24.373Z,1008.34
2019-02-28T08:10:24.344Z,1008.40
2019-02-28T08:11:24.320Z,1008.38
2019-02-28T08:12:27.460Z,1008.41
2019-02-28T08:13:25.220Z,1008.39
2019-02-28T08:14:24.235Z,1008.41
2019-02-28T08:15:24.726Z,1008.42
2019-02-28T08:16:24.178Z,1008.41
2019-02-28T08:17:24.158Z,1008.42
2019-02-28T08:18:24.126Z,1008.44
2019-02-28T08:19:27.239Z,1008.43
2019-02-28T08:20:24.073Z,1008.49
2019-02-28T08:21:24.068Z,1008.50
2019-02-28T08:22:24.722Z,1008.55
2019-02-28T08:23:23.998Z,1008.54
2019-02-28T08:24:23.975Z,1008.54
2019-02-28T08:25:23.947Z,1008.57
2019-02-28T08:26:23.918Z,1008.54
2019-02-28T08:27:25.368Z,1008.49
2019-02-28T08:28:23.870Z,1008.47
2019-02-28T08:29:23.844Z,1008.51
2019-02-28T08:30:23.822Z,1008.43
2019-02-28T08:31:23.799Z,1008.45
2019-02-28T08:32:23.765Z,1008.50
2019-02-28T08:33:23.746Z,1008.48
2019-02-28T08:34:24.776Z,1008.46
2019-02-28T08:35:23.696Z,1008.47
2019-02-28T08:36:23.670Z,1008.55
2019-02-28T08:37:23.652Z,1008.46
2019-02-28T08:38:23.632Z,1008.43
2019-02-28T08:39:23.594Z,1008.42
2019-02-28T08:40:26.331Z,1008.43
2019-02-28T08:41:25.698Z,1008.41
2019-02-28T08:42:23.525Z,1008.41
2019-02-28T08:43:27.142Z,1008.43
2019-02-28T08:44:24.070Z,1008.40
2019-02-28T08:45:23.445Z,1008.43
2019-02-28T08:46:23.419Z,1008.46
2019-02-28T08:47:23.404Z,1008.44
2019-02-28T08:48:23.382Z,1008.46
2019-02-28T08:49:23.358Z,1008.45
2019-02-28T08:50:23.746Z,1008.42
2019-02-28T08:51:23.309Z,1008.44
2019-02-28T08:52:23.290Z,1008.44
2019-02-28T08:53:23.288Z,1008.35
2019-02-28T08:54:27.257Z,1008.36
2019-02-28T08:55:28.687Z,1008.33
2019-02-28T08:57:25.699Z,1008.29
2019-02-28T08:58:23.142Z,1008.28
2019-02-28T08:59:23.127Z,1008.28
2019-02-28T09:00:23.095Z,1008.30
2019-02-28T09:01:23.086Z,1008.25
2019-02-28T09:02:23.049Z,1008.30
2019-02-28T09:03:24.261Z,1008.27
2019-02-28T09:04:22.999Z,1008.22
2019-02-28T09:05:26.160Z,1008.25
2019-02-28T09:06:22.952Z,1008.25
2019-02-28T09:07:22.926Z,1008.19
2019-02-28T09:08:25.361Z,1008.17
2019-02-28T09:09:22.881Z,1008.22
2019-02-28T09:10:22.862Z,1008.18
2019-02-28T09:11:22.833Z,1008.21
2019-02-28T09:12:22.812Z,1008.20
2019-02-28T09:13:23.005Z,1008.13
2019-02-28T09:14:22.765Z,1008.06
2019-02-28T09:15:22.740Z,1008.07
2019-02-28T09:16:22.714Z,1008.07
2019-02-28T09:17:22.696Z,1007.98
2019-02-28T09:18:22.665Z,1008.04
2019-02-28T09:19:22.649Z,1008.06
2019-02-28T09:20:22.620Z,1008.04
2019-02-28T09:21:22.597Z,1008.01
2019-02-28T09:22:27.116Z,1008.02
2019-02-28T09:23:23.521Z,1008.00
2019-02-28T09:24:22.527Z,1008.02
2019-02-28T09:25:22.887Z,1008.06
2019-02-28T09:26:22.480Z,1008.04
2019-02-28T09:27:22.459Z,1008.00
2019-02-28T09:28:22.436Z,1008.00
2019-02-28T09:29:22.409Z,1007.93
2019-02-28T09:30:22.386Z,1007.97
2019-02-28T09:31:22.368Z,1007.91
2019-02-28T09:32:22.336Z,1007.89
2019-02-28T09:33:23.238Z,1007.93
2019-02-28T09:34:22.293Z,1007.92
2019-02-28T09:35:22.271Z,1007.97
2019-02-28T09:36:22.244Z,1007.92
2019-02-28T09:37:22.220Z,1007.95
2019-02-28T09:38:22.188Z,1007.92
2019-02-28T09:39:22.171Z,1007.89
2019-02-28T09:40:22.141Z,1007.88
2019-02-28T09:41:22.125Z,1007.91
2019-02-28T09:42:22.099Z,1007.86
2019-02-28T09:43:23.861Z,1007.83
2019-02-28T09:44:22.055Z,1007.77
2019-02-28T09:45:22.077Z,1007.78
2019-02-28T09:46:22.000Z,1007.79
2019-02-28T09:47:23.359Z,1007.72
2019-02-28T09:48:21.952Z,1007.68
2019-02-28T09:49:21.950Z,1007.68
2019-02-28T09:50:22.604Z,1007.55
2019-02-28T09:51:21.876Z,1007.59
2019-02-28T09:52:22.815Z,1007.58
2019-02-28T09:53:21.826Z,1007.63
2019-02-28T09:54:24.360Z,1007.61
2019-02-28T09:55:21.785Z,1007.60
2019-02-28T09:56:21.759Z,1007.58
2019-02-28T09:57:22.671Z,1007.55
2019-02-28T09:58:21.696Z,1007.57
2019-02-28T09:59:21.666Z,1007.52
2019-02-28T10:00:21.639Z,1007.59
2019-02-28T10:01:24.418Z,1007.50
2019-02-28T10:02:21.585Z,1007.58
2019-02-28T10:03:21.560Z,1007.60
2019-02-28T10:04:21.549Z,1007.62
2019-02-28T10:05:21.510Z,1007.58
2019-02-28T10:06:21.485Z,1007.59
2019-02-28T10:07:23.357Z,1007.61
2019-02-28T10:08:21.847Z,1007.64
2019-02-28T10:09:21.391Z,1007.63
2019-02-28T10:10:22.040Z,1007.61
2019-02-28T10:11:21.856Z,1007.59
2019-02-28T10:12:21.311Z,1007.58
2019-02-28T10:13:21.279Z,1007.58
2019-02-28T10:14:21.258Z,1007.55
2019-02-28T10:15:21.222Z,1007.58
2019-02-28T10:16:21.221Z,1007.63
2019-02-28T10:17:22.684Z,1007.62
2019-02-28T10:18:21.123Z,1007.57
2019-02-28T10:19:21.105Z,1007.66
2019-02-28T10:20:26.475Z,1007.72
2019-02-28T10:21:21.045Z,1007.72
2019-02-28T10:22:21.022Z,1007.72
2019-02-28T10:23:21.518Z,1007.71
2019-02-28T10:24:20.957Z,1007.75
2019-02-28T10:25:20.930Z,1007.76
2019-02-28T10:26:20.901Z,1007.78
2019-02-28T10:27:26.429Z,1007.74
2019-02-28T10:28:20.837Z,1007.74
2019-02-28T10:29:20.830Z,1007.77
2019-02-28T10:30:30.782Z,1007.65
2019-02-28T10:31:22.925Z,1007.76
2019-02-28T10:32:20.729Z,1007.76
2019-02-28T10:33:20.690Z,1007.71
2019-02-28T10:34:23.499Z,1007.71
2019-02-28T10:35:20.633Z,1007.67
2019-02-28T10:36:20.615Z,1007.70
2019-02-28T10:37:22.674Z,1007.65
2019-02-28T10:38:20.539Z,1007.63
2019-02-28T10:39:20.509Z,1007.70
2019-02-28T10:40:20.480Z,1007.68
2019-02-28T10:41:20.448Z,1007.67
2019-02-28T10:42:20.415Z,1007.62
2019-02-28T10:43:20.385Z,1007.63
2019-02-28T10:44:20.373Z,1007.62
2019-02-28T10:45:20.345Z,1007.62
2019-02-28T10:46:20.380Z,1007.63
2019-02-28T10:47:20.265Z,1007.71
2019-02-28T10:48:20.235Z,1007.72
2019-02-28T10:49:21.078Z,1007.80
2019-02-28T10:50:20.172Z,1007.67
2019-02-28T10:51:20.147Z,1007.72
2019-02-28T10:52:20.116Z,1007.72
2019-02-28T10:53:20.085Z,1007.72
2019-02-28T10:54:20.054Z,1007.67
2019-02-28T10:55:22.410Z,1007.71
2019-02-28T10:56:19.999Z,1007.68
2019-02-28T10:57:19.973Z,1007.80
2019-02-28T10:58:19.941Z,1007.58
2019-02-28T10:59:21.318Z,1007.63
2019-02-28T11:00:20.221Z,1007.69
2019-02-28T11:01:19.853Z,1007.72
2019-02-28T11:02:19.986Z,1007.69
2019-02-28T11:03:19.808Z,1007.76
2019-02-28T11:04:19.769Z,1007.67
2019-02-28T11:05:19.752Z,1007.74
2019-02-28T11:06:19.712Z,1007.65
2019-02-28T11:07:19.687Z,1007.65
2019-02-28T11:08:19.658Z,1007.75
2019-02-28T11:09:21.808Z,1007.68
2019-02-28T11:10:19.596Z,1007.62
2019-02-28T11:11:19.575Z,1007.70
2019-02-28T11:12:20.298Z,1007.67
2019-02-28T11:13:19.536Z,1007.71
2019-02-28T11:14:19.493Z,1007.64
2019-02-28T11:15:19.469Z,1007.60
2019-02-28T11:16:20.507Z,1007.65
2019-02-28T11:17:19.411Z,1007.58
2019-02-28T11:18:19.396Z,1007.72
2019-02-28T11:19:19.583Z,1007.69
2019-02-28T11:20:22.398Z,1007.69
2019-02-28T11:21:19.300Z,1007.66
2019-02-28T11:22:19.272Z,1007.71
2019-02-28T11:23:19.241Z,1007.61
2019-02-28T11:24:20.618Z,1007.70
2019-02-28T11:25:19.192Z,1007.71
2019-02-28T11:26:19.169Z,1007.63
2019-02-28T11:27:20.899Z,1007.80
2019-02-28T11:28:19.110Z,1007.82
2019-02-28T11:29:19.083Z,1007.75
2019-02-28T11:30:19.053Z,1007.86
2019-02-28T11:31:19.951Z,1007.89
2019-02-28T11:32:19.002Z,1007.86
2019-02-28T11:33:18.978Z,1007.87
2019-02-28T11:34:18.948Z,1007.81
2019-02-28T11:35:20.092Z,1007.87
2019-02-28T11:36:18.893Z,1007.87
2019-02-28T11:37:18.876Z,1007.83
2019-02-28T11:38:21.557Z,1007.79
2019-02-28T11:39:18.827Z,1007.63
2019-02-28T11:40:18.805Z,1007.58
2019-02-28T11:41:19.660Z,1007.81
2019-02-28T11:42:18.751Z,1007.90
2019-02-28T11:43:18.729Z,1007.92
2019-02-28T11:44:18.762Z,1007.79
2019-02-28T11:45:21.933Z,1007.84
2019-02-28T11:46:19.806Z,1007.81
2019-02-28T11:47:18.632Z,1007.87
2019-02-28T11:48:20.151Z,1007.87
2019-02-28T11:49:18.589Z,1007.78
2019-02-28T11:50:18.558Z,1007.74
2019-02-28T11:51:18.609Z,1007.71
2019-02-28T11:52:18.504Z,1007.57
2019-02-28T11:53:19.134Z,1007.63
2019-02-28T11:54:18.449Z,1007.70
2019-02-28T11:55:20.393Z,1007.80
2019-02-28T11:56:18.413Z,1007.76
2019-02-28T11:57:18.401Z,1007.70
2019-02-28T11:58:18.375Z,1007.68
2019-02-28T11:59:18.338Z,1007.67
2019-02-28T12:00:18.313Z,1007.60
2019-02-28T12:01:18.293Z,1007.67
2019-02-28T12:02:20.181Z,1007.78
2019-02-28T12:03:18.289Z,1007.75
2019-02-28T12:04:18.216Z,1007.37
2019-02-28T12:05:18.195Z,1007.50
2019-02-28T12:06:18.169Z,1007.55